TNCE/EUX METAR and TAF weather

Enter ICAO airport designator
Station Type Date Time Source
TNCE METAR 2019/08/25 19:55 UTC NOAA

TNCE 251955Z AUTO 08012KT 050V140 //// // ///////// 31/24 Q1015 RE//


Station Type Date Time Source
TNCE Decoded METAR 2019/08/25 19:55 UTC NOAA

Station name not available
Aug 25, 2019 - 03:55 PM EDT / 2019.08.25 1955 UTC
Wind: from the E (080 degrees) at 14 MPH (12 KT) (direction variable):0
Temperature: 87 F (31 C)
Heat index: 95.7 F (35.4 C):1
Dew Point: 75 F (24 C)
Relative Humidity: 66%
Pressure (altimeter): 29.97 in. Hg (1015 hPa)
ob: TNCE 251955Z AUTO 08012KT 050V140 //// // ///////// 31/24 Q1015 RE//
cycle: 20

Station Type Date Time Source
TNCE TAF UTC NOAA

Error!

Example: see airport list